Time;durP1;ratioP1;P1;durP2;ratioP2;P2;SDS_P1;SDS_P2;PMS_P1;PMS_P2;Temp;Humidity;BMP_temperature;BMP_pressure;BME280_temperature;BME280_humidity;BME280_pressure;Samples;Min_cycle;Max_cycle;Signal;HPM_P1;HPM_P2
2021/12/10 00:01:10;;;;;;;23.07;10.88;;;;;;;1.20;100.00;99322.48;1637497;86;20988;-74
2021/12/10 00:03:44;;;;;;;19.60;10.65;;;;;;;1.20;100.00;99318.42;1607730;89;20985;-76
2021/12/10 00:06:28;;;;;;;20.17;9.98;;;;;;;1.22;100.00;99313.57;1607163;89;20969;-74
2021/12/10 00:08:59;;;;;;;22.20;10.28;;;;;;;1.26;100.00;99314.67;1606996;89;21089;-74
2021/12/10 00:11:34;;;;;;;24.30;10.78;;;;;;;1.26;100.00;99320.09;1608319;89;20982;-74
2021/12/10 00:14:00;;;;;;;20.27;10.65;;;;;;;1.26;100.00;99324.68;1606637;89;21540;-74
2021/12/10 00:16:28;;;;;;;22.37;11.38;;;;;;;1.27;100.00;99325.77;1608144;89;21606;-74
2021/12/10 00:19:07;;;;;;;21.33;11.10;;;;;;;1.28;100.00;99330.11;1608227;88;20969;-74
2021/12/10 00:21:25;;;;;;;21.20;10.32;;;;;;;1.28;100.00;99332.81;1606957;89;21824;-74
2021/12/10 00:23:55;;;;;;;26.57;11.08;;;;;;;1.31;100.00;99332.30;1608131;89;20897;-74
2021/12/10 00:26:21;;;;;;;18.85;10.43;;;;;;;1.32;100.00;99333.92;1608456;88;21009;-74
2021/12/10 00:28:48;;;;;;;18.07;9.93;;;;;;;1.34;100.00;99339.07;1608245;89;21096;-74
2021/12/10 00:31:43;;;;;;;26.02;10.45;;;;;;;1.38;100.00;99346.94;1608254;88;20886;-75
2021/12/10 00:34:10;;;;;;;22.22;10.72;;;;;;;1.40;100.00;99348.03;1606878;89;21564;-74
2021/12/10 00:36:37;;;;;;;23.05;11.12;;;;;;;1.41;100.00;99342.91;1608315;89;21041;-74
2021/12/10 00:39:08;;;;;;;22.30;9.63;;;;;;;1.41;100.00;99336.14;1608230;89;20921;-74
2021/12/10 00:41:36;;;;;;;22.55;10.98;;;;;;;1.42;100.00;99334.52;1606946;89;20974;-74
2021/12/10 00:44:02;;;;;;;23.42;9.55;;;;;;;1.43;100.00;99323.17;1608187;89;21048;-74
2021/12/10 00:46:31;;;;;;;20.27;10.55;;;;;;;1.42;100.00;99322.36;1608281;88;20981;-74
2021/12/10 00:48:58;;;;;;;20.90;11.03;;;;;;;1.42;100.00;99311.53;1608137;89;21067;-74
2021/12/10 00:51:24;;;;;;;19.52;9.73;;;;;;;1.43;100.00;99317.22;1608569;88;20929;-74
2021/12/10 00:53:52;;;;;;;18.00;10.08;;;;;;;1.43;100.00;99318.57;1608215;89;20939;-75
2021/12/10 00:56:19;;;;;;;30.45;13.50;;;;;;;1.43;100.00;99316.41;1608458;89;21536;-74
2021/12/10 00:58:45;;;;;;;26.15;11.20;;;;;;;1.44;100.00;99312.63;1608159;89;21852;-74
2021/12/10 01:01:16;;;;;;;23.15;10.20;;;;;;;1.45;100.00;99320.48;1608140;89;21089;-74
2021/12/10 01:03:47;;;;;;;21.90;10.63;;;;;;;1.47;100.00;99316.16;1608305;88;21512;-74
2021/12/10 01:06:16;;;;;;;30.00;10.93;;;;;;;1.49;100.00;99311.30;1608771;88;20937;-75
2021/12/10 01:08:45;;;;;;;25.57;9.78;;;;;;;1.51;100.00;99307.80;1608353;89;20897;-74
2021/12/10 01:11:26;;;;;;;20.70;10.88;;;;;;;1.51;100.00;99301.84;1608202;89;21149;-75
2021/12/10 01:13:57;;;;;;;25.02;9.88;;;;;;;1.54;100.00;99295.10;1608580;88;21497;-76
2021/12/10 01:24:50;;;;;;;22.65;10.15;;;;;;;1.61;100.00;99301.91;1610904;89;21548;-75
2021/12/10 01:27:27;;;;;;;31.97;11.75;;;;;;;1.65;100.00;99301.66;1608981;89;21467;-74
2021/12/10 01:29:43;;;;;;;22.70;10.82;;;;;;;1.70;100.00;99301.41;1608946;89;20998;-74
2021/12/10 01:32:15;;;;;;;25.72;10.30;;;;;;;1.73;100.00;99294.11;1610672;88;20976;-74
2021/12/10 01:34:42;;;;;;;29.00;9.83;;;;;;;1.74;100.00;99295.71;1611160;88;20897;-74
2021/12/10 01:37:09;;;;;;;30.12;10.53;;;;;;;1.75;100.00;99294.09;1610639;88;21547;-75
2021/12/10 01:39:38;;;;;;;27.02;10.78;;;;;;;1.76;100.00;99276.78;1610612;89;20925;-74
2021/12/10 01:42:17;;;;;;;44.23;12.70;;;;;;;1.78;100.00;99285.45;1610650;88;20933;-74
2021/12/10 01:44:51;;;;;;;33.40;11.22;;;;;;;1.80;100.00;99293.30;1610616;88;21516;-74
2021/12/10 01:47:26;;;;;;;24.47;10.82;;;;;;;1.82;100.00;99296.02;1610704;88;21559;-74
2021/12/10 01:49:53;;;;;;;24.67;10.55;;;;;;;1.84;100.00;99302.52;1610782;88;21162;-75
2021/12/10 01:52:19;;;;;;;32.58;11.43;;;;;;;1.86;100.00;99299.83;1610795;88;20984;-76
2021/12/10 01:54:54;;;;;;;31.30;11.78;;;;;;;1.87;100.00;99282.50;1610868;88;20898;-76
2021/12/10 01:57:23;;;;;;;24.60;11.30;;;;;;;1.89;100.00;99287.12;1610812;89;21028;-77
2021/12/10 01:59:50;;;;;;;21.10;10.75;;;;;;;1.90;100.00;99295.52;1610884;88;21527;-77
2021/12/10 02:02:25;;;;;;;34.90;12.28;;;;;;;1.92;100.00;99292.00;1610670;88;21433;-77
2021/12/10 02:04:52;;;;;;;23.20;10.95;;;;;;;1.96;100.00;99293.64;1610819;88;21031;-74
2021/12/10 02:07:22;;;;;;;21.48;11.63;;;;;;;1.97;100.00;99297.44;1610631;89;21025;-73
2021/12/10 02:09:49;;;;;;;33.15;13.43;;;;;;;1.99;100.00;99292.57;1610928;89;21625;-74
2021/12/10 02:12:17;;;;;;;34.83;12.85;;;;;;;2.01;100.00;99288.78;1610721;88;20982;-76
2021/12/10 02:14:44;;;;;;;32.23;12.13;;;;;;;2.02;100.00;99292.58;1610919;88;21137;-76
2021/12/10 02:17:11;;;;;;;23.55;10.38;;;;;;;2.02;100.00;99291.22;1610800;88;20977;-77
2021/12/10 02:19:39;;;;;;;30.55;11.78;;;;;;;2.02;100.00;99287.70;1610838;88;21048;-77
2021/12/10 02:22:07;;;;;;;29.55;12.35;;;;;;;2.02;100.00;99303.41;1610550;89;21476;-75
2021/12/10 02:24:34;;;;;;;31.77;12.40;;;;;;;2.03;100.00;99302.87;1610663;89;20925;-74
2021/12/10 02:27:03;;;;;;;25.88;11.85;;;;;;;2.02;100.00;99305.30;1610679;89;21535;-74
2021/12/10 02:29:32;;;;;;;28.87;10.82;;;;;;;2.01;100.00;99305.03;1610794;89;21017;-75
2021/12/10 02:31:59;;;;;;;22.40;9.53;;;;;;;2.01;100.00;99315.86;1610668;89;20980;-75
2021/12/10 02:34:26;;;;;;;34.48;13.00;;;;;;;2.03;100.00;99315.05;1610783;89;20934;-75
2021/12/10 02:36:54;;;;;;;33.38;12.85;;;;;;;2.05;100.00;99313.70;1610639;88;20914;-74
2021/12/10 02:39:24;;;;;;;37.45;12.88;;;;;;;2.09;100.00;99311.28;1612366;88;21530;-75
2021/12/10 02:41:50;;;;;;;29.40;13.58;;;;;;;2.11;100.00;99314.00;1610844;89;21014;-73
2021/12/10 02:44:21;;;;;;;35.75;13.32;;;;;;;2.11;100.00;99302.35;1610615;88;20894;-75
2021/12/10 02:46:48;;;;;;;26.20;13.62;;;;;;;2.11;100.00;99308.59;1610901;88;21048;-76
2021/12/10 02:49:15;;;;;;;35.85;13.25;;;;;;;2.12;100.00;99311.56;1610666;89;20933;-76
2021/12/10 02:51:42;;;;;;;38.05;13.08;;;;;;;2.10;100.00;99311.02;1610684;88;21125;-76
2021/12/10 02:54:10;;;;;;;31.48;13.40;;;;;;;2.11;100.00;99307.23;1610886;88;21023;-76
2021/12/10 02:56:39;;;;;;;47.17;17.25;;;;;;;2.10;100.00;99309.66;1610620;89;21021;-75
2021/12/10 02:59:06;;;;;;;36.70;16.60;;;;;;;2.09;100.00;99307.22;1610619;88;20989;-74
2021/12/10 03:01:43;;;;;;;36.38;16.87;;;;;;;2.09;100.00;99297.20;1610605;88;20965;-74
2021/12/10 03:04:10;;;;;;;35.23;16.90;;;;;;;2.10;100.00;99291.25;1615012;88;21568;-74
2021/12/10 03:06:44;;;;;;;40.67;17.57;;;;;;;2.12;100.00;99287.20;1610652;89;21067;-74
2021/12/10 03:09:12;;;;;;;40.92;18.00;;;;;;;2.13;100.00;99293.42;1610885;88;20965;-73
2021/12/10 03:11:39;;;;;;;42.10;19.95;;;;;;;2.14;100.00;99293.16;1610580;88;21019;-73
2021/12/10 03:14:10;;;;;;;38.65;18.90;;;;;;;2.17;100.00;99285.05;1610801;88;21476;-73
2021/12/10 03:16:40;;;;;;;38.92;17.57;;;;;;;2.18;100.00;99283.96;1610740;89;21043;-73
2021/12/10 03:19:07;;;;;;;34.15;17.23;;;;;;;2.16;100.00;99286.13;1610858;89;20925;-73
2021/12/10 03:21:37;;;;;;;32.25;17.02;;;;;;;2.15;100.00;99285.84;1610648;88;20937;-73
2021/12/10 03:24:04;;;;;;;37.70;17.70;;;;;;;2.14;100.00;99282.87;1610650;89;20941;-73
2021/12/10 03:26:31;;;;;;;35.55;16.85;;;;;;;2.14;100.00;99288.28;1610599;88;20985;-73
2021/12/10 03:28:58;;;;;;;40.38;17.62;;;;;;;2.12;100.00;99280.42;1610810;89;21520;-74
2021/12/10 03:31:25;;;;;;;35.35;17.23;;;;;;;2.12;100.00;99270.13;1610590;88;20921;-75
2021/12/10 03:33:52;;;;;;;40.48;18.27;;;;;;;2.11;100.00;99267.16;1610817;89;20969;-73
2021/12/10 03:36:19;;;;;;;42.35;19.27;;;;;;;2.10;100.00;99256.86;1610639;89;21012;-72
2021/12/10 03:38:47;;;;;;;39.50;18.02;;;;;;;2.11;100.00;99261.73;1610704;88;20978;-74
2021/12/10 03:41:13;;;;;;;48.13;18.70;;;;;;;2.12;100.00;99261.47;1610599;88;21517;-74
2021/12/10 03:43:41;;;;;;;41.28;18.45;;;;;;;2.13;100.00;99266.34;1610531;89;21598;-74
2021/12/10 03:46:08;;;;;;;53.50;18.05;;;;;;;2.15;100.00;99257.41;1610597;89;21548;-74
2021/12/10 03:48:40;;;;;;;42.48;16.73;;;;;;;2.17;100.00;99257.96;1610656;89;20905;-74
2021/12/10 03:51:11;;;;;;;38.73;16.87;;;;;;;2.16;100.00;99263.92;1611126;89;21509;-74
2021/12/10 03:53:38;;;;;;;36.23;17.40;;;;;;;2.15;100.00;99262.83;1610667;89;21170;-74
2021/12/10 03:56:08;;;;;;;33.42;15.95;;;;;;;2.11;100.00;99263.91;1611040;88;20985;-74
2021/12/10 03:58:36;;;;;;;43.28;18.75;;;;;;;2.09;100.00;99268.77;1587984;89;34046;-73
2021/12/10 04:01:04;;;;;;;37.58;18.52;;;;;;;2.07;100.00;99270.94;1605701;89;21016;-74
2021/12/10 04:03:32;;;;;;;37.48;18.40;;;;;;;2.05;100.00;99261.45;1609425;89;21039;-71
2021/12/10 04:05:58;;;;;;;36.03;18.07;;;;;;;2.09;100.00;99257.13;1610715;89;21156;-71
2021/12/10 04:08:25;;;;;;;39.25;17.73;;;;;;;2.09;100.00;99263.89;1610701;89;20964;-71
2021/12/10 04:10:52;;;;;;;38.35;17.70;;;;;;;2.09;100.00;99272.02;1610719;89;20975;-71
2021/12/10 04:13:18;;;;;;;37.45;18.52;;;;;;;2.10;100.00;99270.40;1610751;88;21058;-71
2021/12/10 04:15:45;;;;;;;36.83;17.52;;;;;;;2.10;100.00;99263.63;1610761;89;20927;-72
2021/12/10 04:18:11;;;;;;;32.73;18.12;;;;;;;2.12;100.00;99267.42;1608673;88;21488;-71
2021/12/10 04:20:39;;;;;;;37.33;18.48;;;;;;;2.14;100.00;99270.68;1606396;88;21014;-72
2021/12/10 04:23:10;;;;;;;38.60;18.35;;;;;;;2.14;100.00;99277.45;1610642;89;20939;-71
2021/12/10 04:25:37;;;;;;;40.83;19.32;;;;;;;2.13;100.00;99275.28;1611033;87;20939;-72
2021/12/10 04:28:10;;;;;;;43.25;20.70;;;;;;;2.15;100.00;99273.12;1610991;89;20879;-72
2021/12/10 04:30:39;;;;;;;40.43;18.27;;;;;;;2.15;100.00;99270.41;1610697;88;21118;-72
2021/12/10 04:33:07;;;;;;;37.13;19.77;;;;;;;2.16;100.00;99268.52;1611380;87;20919;-72
2021/12/10 04:35:35;;;;;;;40.92;18.10;;;;;;;2.15;100.00;99271.77;1635945;86;21162;-72
2021/12/10 04:38:02;;;;;;;48.60;21.37;;;;;;;2.17;100.00;99276.37;1639015;86;20998;-72
2021/12/10 04:40:28;;;;;;;47.78;20.17;;;;;;;2.17;100.00;99275.56;1634348;86;21152;-71
2021/12/10 04:42:55;;;;;;;44.53;20.43;;;;;;;2.18;100.00;99272.59;1630581;86;21594;-72
2021/12/10 04:45:22;;;;;;;48.33;20.32;;;;;;;2.19;100.00;99272.05;1631273;86;21243;-72
2021/12/10 04:47:49;;;;;;;46.58;19.37;;;;;;;2.20;100.00;99277.20;1635633;86;21092;-73
2021/12/10 04:50:17;;;;;;;50.28;21.35;;;;;;;2.23;100.00;99272.60;1629975;86;21526;-75
2021/12/10 04:52:45;;;;;;;47.10;19.92;;;;;;;2.24;100.00;99266.10;1640811;86;21090;-76
2021/12/10 04:55:13;;;;;;;41.00;19.40;;;;;;;2.24;100.00;99268.81;1628731;86;21176;-75
2021/12/10 04:57:40;;;;;;;46.65;20.88;;;;;;;2.24;100.00;99265.29;1634489;86;21479;-76
2021/12/10 05:00:10;;;;;;;46.73;19.55;;;;;;;2.25;100.00;99266.91;1633983;86;21459;-75
2021/12/10 05:02:38;;;;;;;49.13;19.90;;;;;;;2.27;100.00;99267.47;1629493;86;21744;-74
2021/12/10 05:05:07;;;;;;;47.17;19.70;;;;;;;2.26;100.00;99264.48;1636156;86;21649;-75
2021/12/10 05:07:37;;;;;;;47.20;20.15;;;;;;;2.26;100.00;99274.77;1635653;86;21144;-73
2021/12/10 05:10:07;;;;;;;46.30;20.45;;;;;;;2.27;100.00;99271.52;1639445;86;20963;-74
2021/12/10 05:12:35;;;;;;;48.38;21.42;;;;;;;2.30;100.00;99268.28;1633210;86;21035;-74
2021/12/10 05:15:05;;;;;;;46.20;20.92;;;;;;;2.30;100.00;99269.09;1630484;86;21665;-73
2021/12/10 05:17:34;;;;;;;42.40;19.95;;;;;;;2.32;100.00;99274.21;1644799;86;20981;-73
2021/12/10 05:20:12;;;;;;;43.73;20.10;;;;;;;2.31;100.00;99276.68;1634336;86;21625;-73
2021/12/10 05:22:40;;;;;;;36.95;18.77;;;;;;;2.33;100.00;99275.84;1649071;86;21047;-73
2021/12/10 05:25:08;;;;;;;38.85;19.98;;;;;;;2.36;100.00;99278.02;1635663;86;21279;-73
2021/12/10 05:27:35;;;;;;;37.28;19.42;;;;;;;2.36;100.00;99280.72;1634499;86;21108;-74
2021/12/10 05:30:02;;;;;;;37.83;18.60;;;;;;;2.35;100.00;99279.09;1650032;85;21093;-75
2021/12/10 05:32:28;;;;;;;38.53;19.20;;;;;;;2.36;100.00;99282.62;1664842;84;21574;-74
2021/12/10 05:34:55;;;;;;;42.00;19.30;;;;;;;2.36;100.00;99283.44;1681967;84;20908;-74
2021/12/10 05:37:22;;;;;;;42.17;20.82;;;;;;;2.35;100.00;99282.34;1646262;85;21019;-74
2021/12/10 05:39:49;;;;;;;37.03;20.08;;;;;;;2.34;100.00;99285.59;1628149;86;21059;-75
2021/12/10 05:42:15;;;;;;;40.65;19.55;;;;;;;2.37;100.00;99283.70;1628866;86;21023;-75
2021/12/10 05:44:42;;;;;;;39.48;19.45;;;;;;;2.38;100.00;99276.39;1639495;86;21129;-75
2021/12/10 05:47:09;;;;;;;36.90;20.00;;;;;;;2.37;100.00;99276.13;1632355;86;21018;-74
2021/12/10 05:49:36;;;;;;;39.00;19.35;;;;;;;2.37;100.00;99271.52;1631379;86;21565;-72
2021/12/10 05:52:04;;;;;;;35.83;18.00;;;;;;;2.37;100.00;99257.97;1632096;86;21030;-75
2021/12/10 05:54:30;;;;;;;35.08;17.62;;;;;;;2.40;100.00;99262.04;1627330;86;21077;-77
2021/12/10 05:56:57;;;;;;;36.58;18.25;;;;;;;2.41;100.00;99267.73;1614158;87;21099;-74
2021/12/10 05:59:23;;;;;;;32.98;17.57;;;;;;;2.42;100.00;99263.94;1623572;86;20960;-75
2021/12/10 06:01:49;;;;;;;38.75;19.20;;;;;;;2.42;100.00;99263.39;1629514;86;21016;-75
2021/12/10 06:04:22;;;;;;;35.95;17.95;;;;;;;2.44;100.00;99269.36;1634715;86;21084;-73
2021/12/10 06:06:44;;;;;;;39.13;17.48;;;;;;;2.45;100.00;99268.81;1632178;86;20961;-78
2021/12/10 06:09:11;;;;;;;34.73;17.85;;;;;;;2.45;100.00;99272.88;1625832;86;21105;-80
2021/12/10 06:11:37;;;;;;;33.65;17.85;;;;;;;2.48;100.00;99273.16;1634029;86;21090;-87
2021/12/10 06:14:04;;;;;;;33.45;17.73;;;;;;;2.49;100.00;99274.78;1638643;86;21443;-73
2021/12/10 06:16:31;;;;;;;32.98;16.77;;;;;;;2.52;100.00;99279.66;1635522;86;20999;-73
2021/12/10 06:18:57;;;;;;;36.08;18.80;;;;;;;2.53;100.00;99284.00;1641245;86;21015;-74
2021/12/10 06:21:24;;;;;;;37.85;19.15;;;;;;;2.55;100.00;99279.67;1634836;86;21120;-73
2021/12/10 06:23:51;;;;;;;37.38;18.95;;;;;;;2.59;100.00;99279.41;1634043;86;21018;-72
2021/12/10 06:26:17;;;;;;;35.45;18.10;;;;;;;2.61;100.00;99273.17;1585541;89;21587;-71
2021/12/10 06:28:45;;;;;;;32.88;17.05;;;;;;;2.60;100.00;99273.71;1630432;86;21612;-71
2021/12/10 06:31:15;;;;;;;30.80;17.52;;;;;;;2.60;100.00;99266.94;1642925;86;20975;-81
2021/12/10 06:33:43;;;;;;;38.53;17.85;;;;;;;2.62;100.00;99254.47;1647486;86;21152;-69
2021/12/10 06:36:09;;;;;;;34.92;18.23;;;;;;;2.65;100.00;99247.16;1627107;86;21015;-70
2021/12/10 06:38:35;;;;;;;34.55;16.97;;;;;;;2.65;100.00;99252.58;1636991;86;21268;-69
2021/12/10 06:41:02;;;;;;;33.63;18.25;;;;;;;2.64;100.00;99242.28;1632664;86;21014;-70
2021/12/10 06:43:29;;;;;;;35.78;18.05;;;;;;;2.68;100.00;99241.20;1643134;86;21007;-70
2021/12/10 06:45:56;;;;;;;34.95;17.27;;;;;;;2.72;100.00;99241.47;1631434;86;21171;-82
2021/12/10 06:48:24;;;;;;;32.85;17.17;;;;;;;2.73;100.00;99256.64;1627804;86;21382;-71
2021/12/10 06:50:56;;;;;;;33.38;17.52;;;;;;;2.76;100.00;99268.30;1641375;86;21034;-75
2021/12/10 06:53:24;;;;;;;;;;;;;;;2.80;100.00;99264.77;1640936;86;21000;-75
2021/12/10 06:55:56;;;;;;;36.70;17.42;;;;;;;2.84;100.00;99261.80;1637645;86;20142;-75
2021/12/10 06:58:25;;;;;;;38.50;18.62;;;;;;;2.88;100.00;99259.35;1634399;86;21159;-75
2021/12/10 07:00:59;;;;;;;36.53;18.87;;;;;;;2.89;100.00;99252.27;1626198;86;20994;-75
2021/12/10 07:03:31;;;;;;;31.73;17.75;;;;;;;2.91;100.00;99256.88;1625576;86;21439;-75
2021/12/10 07:06:07;;;;;;;33.95;17.70;;;;;;;2.94;100.00;99252.81;1636291;86;20948;-75
2021/12/10 07:08:38;;;;;;;35.35;19.35;;;;;;;2.96;100.00;99249.28;1634562;86;20952;-73
2021/12/10 07:11:08;;;;;;;34.83;18.57;;;;;;;2.99;100.00;99256.88;1629372;86;21152;-79
2021/12/10 07:13:36;;;;;;;38.05;18.77;;;;;;;3.01;100.00;99253.89;1627116;86;20993;-80
2021/12/10 07:16:05;;;;;;;36.42;19.75;;;;;;;3.03;100.00;99257.14;1643342;86;21050;-78
2021/12/10 07:18:35;;;;;;;38.02;19.02;;;;;;;3.05;100.00;99256.33;1632687;86;20991;-77
2021/12/10 07:21:03;;;;;;;37.17;18.85;;;;;;;3.07;100.00;99252.25;1632897;86;21093;-80
2021/12/10 07:23:33;;;;;;;35.73;17.85;;;;;;;3.08;100.00;99255.78;1630937;86;21148;-73
2021/12/10 07:26:02;;;;;;;34.18;18.27;;;;;;;3.10;100.00;99247.64;1642131;86;21071;-83
2021/12/10 07:28:32;;;;;;;32.63;18.95;;;;;;;3.14;100.00;99241.94;1628723;86;21119;-79
2021/12/10 07:31:01;;;;;;;36.85;18.70;;;;;;;3.19;100.00;99251.96;1642124;86;21020;-78
2021/12/10 07:33:34;;;;;;;32.38;17.98;;;;;;;3.21;100.00;99247.89;1638356;85;21061;-77
2021/12/10 07:36:06;;;;;;;32.70;16.73;;;;;;;3.26;100.00;99243.81;1636074;86;21585;-74
2021/12/10 07:38:38;;;;;;;35.98;18.60;;;;;;;3.26;100.00;99243.81;1630254;86;20912;-71
2021/12/10 07:41:09;;;;;;;35.70;19.85;;;;;;;3.30;100.00;99230.51;1643471;86;21110;-80
2021/12/10 07:43:41;;;;;;;40.50;18.92;;;;;;;3.34;100.00;99236.20;1642386;86;20920;-80
2021/12/10 07:46:12;;;;;;;38.42;18.10;;;;;;;3.37;100.00;99231.03;1643567;86;21589;-77
2021/12/10 07:48:41;;;;;;;29.50;15.90;;;;;;;3.40;100.00;99229.13;1632191;86;21172;-82
2021/12/10 07:51:26;;;;;;;36.70;18.62;;;;;;;3.43;100.00;99231.28;1615870;86;21033;-76
2021/12/10 07:53:57;;;;;;;32.28;17.77;;;;;;;3.45;100.00;99225.58;1629773;86;21482;-75
2021/12/10 07:56:30;;;;;;;33.75;17.25;;;;;;;3.47;100.00;99229.61;1641785;86;21466;-75
2021/12/10 07:59:01;;;;;;;39.70;19.80;;;;;;;3.51;100.00;99224.45;1633824;86;21189;-78
2021/12/10 08:01:30;;;;;;;35.00;19.80;;;;;;;3.53;100.00;99224.44;1633701;86;21173;-75
2021/12/10 08:04:04;;;;;;;36.85;19.27;;;;;;;3.56;100.00;99225.78;1615605;86;21106;-74
2021/12/10 08:06:33;;;;;;;;;;;;;;;3.58;100.00;99224.96;1616211;87;20985;-77
2021/12/10 08:09:04;;;;;;;31.37;17.90;;;;;;;3.60;100.00;99231.73;1636413;86;21052;-83
2021/12/10 08:11:36;;;;;;;32.88;17.07;;;;;;;3.62;100.00;99227.39;1641977;86;21518;-76
2021/12/10 08:14:07;;;;;;;32.85;19.05;;;;;;;3.66;100.00;99220.31;1638887;86;21177;-78
2021/12/10 08:16:36;;;;;;;35.45;19.73;;;;;;;3.71;100.00;99204.00;1616518;87;21561;-79
2021/12/10 08:19:07;;;;;;;41.23;20.10;;;;;;;3.75;100.00;99208.33;1621414;86;21033;-79
2021/12/10 08:21:33;;;;;;;33.30;19.82;;;;;;;3.82;100.00;99199.34;1631681;86;21550;-78
2021/12/10 08:24:00;;;;;;;35.10;18.32;;;;;;;3.82;100.00;99199.34;1635074;86;21573;-81
2021/12/10 08:26:36;;;;;;;37.15;19.70;;;;;;;3.84;100.00;99197.97;1634768;86;21161;-78
2021/12/10 08:29:06;;;;;;;32.85;18.85;;;;;;;3.87;100.00;99189.81;1629806;86;21114;-80
2021/12/10 08:31:36;;;;;;;33.60;19.25;;;;;;;3.91;100.00;99192.23;1635224;86;28034;-77
2021/12/10 08:34:05;;;;;;;38.48;20.32;;;;;;;3.89;100.00;99183.00;1625903;86;21018;-79
2021/12/10 08:36:35;;;;;;;37.93;19.00;;;;;;;3.90;100.00;99181.91;1631693;86;21070;-80
2021/12/10 08:39:08;;;;;;;33.28;19.02;;;;;;;3.92;100.00;99172.13;1634926;86;21179;-83
2021/12/10 08:41:39;;;;;;;32.48;17.32;;;;;;;3.93;100.00;99178.64;1630213;86;21062;-83
2021/12/10 08:44:07;;;;;;;34.00;19.82;;;;;;;3.96;100.00;99179.98;1625558;86;21470;-83
2021/12/10 08:46:37;;;;;;;36.25;19.80;;;;;;;3.97;100.00;99178.89;1612944;86;21462;-84
2021/12/10 08:49:10;;;;;;;33.92;20.00;;;;;;;3.98;100.00;99164.21;1619985;86;20902;-84
2021/12/10 08:51:49;;;;;;;39.00;20.68;;;;;;;4.01;100.00;99162.84;1636974;86;21509;-83
2021/12/10 08:54:20;;;;;;;36.50;19.67;;;;;;;4.01;100.00;99159.58;1649486;86;21539;-83
2021/12/10 08:56:53;;;;;;;34.65;19.90;;;;;;;4.03;100.00;99153.31;1632257;86;21051;-84
2021/12/10 08:59:26;;;;;;;32.45;19.65;;;;;;;4.03;100.00;99145.16;1630112;86;21082;-83
2021/12/10 09:02:01;;;;;;;35.15;19.98;;;;;;;4.07;100.00;99150.27;1633220;86;20984;-81
2021/12/10 09:04:29;;;;;;;39.13;20.55;;;;;;;4.12;100.00;99148.06;1629576;86;21161;-80
2021/12/10 09:07:06;;;;;;;31.05;17.85;;;;;;;4.13;100.00;99142.89;1620933;86;21024;-78
2021/12/10 09:09:40;;;;;;;36.08;19.98;;;;;;;4.15;100.00;99139.34;1616199;86;21599;-80
2021/12/10 09:12:16;;;;;;;27.10;16.93;;;;;;;4.19;100.00;99137.69;1638469;86;21118;-79
2021/12/10 09:14:44;;;;;;;35.70;19.98;;;;;;;4.20;100.00;99132.52;1629191;86;21483;-80
2021/12/10 09:17:16;;;;;;;32.15;18.73;;;;;;;4.22;100.00;99128.97;1626541;86;21196;-77
2021/12/10 09:19:43;;;;;;;35.80;20.45;;;;;;;4.25;100.00;99118.89;1630714;86;20911;-80
2021/12/10 09:22:11;;;;;;;78.35;53.75;;;;;;;4.29;100.00;99118.04;1624682;86;21495;-82
2021/12/10 09:24:51;;;;;;;39.45;24.52;;;;;;;4.33;100.00;99114.75;1633128;86;21514;-81
2021/12/10 09:27:11;;;;;;;36.45;21.37;;;;;;;4.40;100.00;99123.39;1622571;86;21673;-80
2021/12/10 09:29:45;;;;;;;38.25;21.30;;;;;;;4.42;100.00;99107.61;1629353;84;21171;-88
2021/12/10 09:32:26;;;;;;;37.60;20.23;;;;;;;4.45;100.00;99114.64;1630456;86;21614;-88
2021/12/10 09:34:55;;;;;;;32.67;19.23;;;;;;;4.45;100.00;99114.64;1630098;86;21021;-82
2021/12/10 09:37:31;;;;;;;39.95;20.62;;;;;;;4.46;100.00;99116.81;1621880;86;20948;-80
2021/12/10 09:39:59;;;;;;;34.18;19.82;;;;;;;4.47;100.00;99108.38;1629929;86;21003;-87
2021/12/10 09:42:27;;;;;;;33.08;19.65;;;;;;;4.48;100.00;99114.07;1624588;86;21730;-80
2021/12/10 09:44:56;;;;;;;41.77;21.30;;;;;;;4.48;100.00;99115.43;1602326;88;21520;-85
2021/12/10 09:47:27;;;;;;;40.15;21.52;;;;;;;4.44;100.00;99107.58;1607482;88;20897;-80
2021/12/10 09:49:56;;;;;;;40.63;18.60;;;;;;;4.44;100.00;99107.58;1607120;88;21002;-81
2021/12/10 09:52:30;;;;;;;34.90;19.05;;;;;;;4.46;100.00;99099.14;1609566;89;21161;-80
2021/12/10 09:55:02;;;;;;;38.88;21.10;;;;;;;4.47;100.00;99109.73;1610648;88;20884;-77
2021/12/10 09:57:32;;;;;;;37.42;19.55;;;;;;;4.47;100.00;99098.86;1609382;88;20968;-79
2021/12/10 10:00:15;;;;;;;36.90;20.08;;;;;;;4.48;100.00;99100.48;1589732;89;20971;-83
2021/12/10 10:02:49;;;;;;;35.23;20.10;;;;;;;4.50;100.00;99086.60;1609269;89;21575;-81
2021/12/10 10:05:18;;;;;;;36.23;20.43;;;;;;;4.53;100.00;99090.11;1610953;88;20972;-81
2021/12/10 10:07:53;;;;;;;38.17;20.60;;;;;;;4.51;100.00;99084.95;1609844;88;21574;-81
2021/12/10 10:10:21;;;;;;;30.97;18.82;;;;;;;4.51;100.00;99084.95;1610638;88;20979;-80
2021/12/10 10:12:53;;;;;;;39.15;21.30;;;;;;;4.53;100.00;99085.48;1610197;88;20996;-81
2021/12/10 10:15:32;;;;;;;37.85;20.43;;;;;;;4.56;100.00;99080.83;1612479;88;28107;-80
2021/12/10 10:18:05;;;;;;;40.28;21.27;;;;;;;4.56;100.00;99061.80;1617620;87;21529;-79
2021/12/10 10:20:38;;;;;;;35.83;20.20;;;;;;;4.58;100.00;99055.53;1665143;85;21079;-80
2021/12/10 10:23:07;;;;;;;37.60;22.30;;;;;;;4.61;100.00;99045.98;1678590;84;20952;-79
2021/12/10 10:25:36;;;;;;;42.27;22.67;;;;;;;4.61;100.00;99045.98;1655113;85;21244;-80
2021/12/10 10:28:04;;;;;;;42.33;22.00;;;;;;;4.65;100.00;99049.17;1653169;86;21500;-82
2021/12/10 10:30:38;;;;;;;41.37;23.35;;;;;;;4.68;100.00;99051.05;1615480;86;20998;-83
2021/12/10 10:33:12;;;;;;;44.30;23.42;;;;;;;4.68;100.00;99044.25;1626934;84;22387;-81
2021/12/10 10:35:46;;;;;;;40.25;22.87;;;;;;;4.70;100.00;99051.57;1631934;85;21454;-79
2021/12/10 10:38:16;;;;;;;40.20;22.75;;;;;;;4.72;100.00;99048.02;1641411;86;20950;-79
2021/12/10 10:40:52;;;;;;;38.70;21.85;;;;;;;4.73;100.00;99042.84;1615106;87;21622;-78
2021/12/10 10:43:25;;;;;;;36.68;22.13;;;;;;;4.74;100.00;99023.52;1630478;86;21444;-80
2021/12/10 10:45:58;;;;;;;37.83;21.57;;;;;;;4.74;100.00;99025.42;1617091;87;21006;-80
2021/12/10 10:48:28;;;;;;;44.38;25.23;;;;;;;4.77;100.00;99031.64;1628047;86;20921;-78
2021/12/10 10:51:04;;;;;;;41.98;22.73;;;;;;;4.79;100.00;99028.89;1628450;86;25992;-78
2021/12/10 10:53:37;;;;;;;41.53;23.35;;;;;;;4.83;100.00;99030.48;1635344;86;21021;-78
2021/12/10 10:56:09;;;;;;;41.45;22.55;;;;;;;4.85;100.00;99025.56;1633496;86;20973;-78
2021/12/10 10:58:55;;;;;;;39.23;23.25;;;;;;;4.87;100.00;99023.36;1615639;87;21108;-78
2021/12/10 11:01:40;;;;;;;44.88;24.40;;;;;;;4.87;100.00;99013.30;1625988;86;20960;-78
2021/12/10 11:04:18;;;;;;;53.78;28.87;;;;;;;4.87;100.00;99013.30;1636046;86;20894;-79
2021/12/10 11:06:53;;;;;;;53.00;26.17;;;;;;;4.91;100.00;99004.00;1630425;86;21115;-79
2021/12/10 11:09:26;;;;;;;70.05;40.95;;;;;;;4.92;100.00;98982.50;1628517;86;21152;-79
2021/12/10 11:12:05;;;;;;;68.97;30.80;;;;;;;4.98;100.00;99000.38;1620610;87;21484;-79
2021/12/10 11:14:48;;;;;;;47.10;28.32;;;;;;;5.05;100.00;98995.38;1625460;86;20973;-78
2021/12/10 11:17:18;;;;;;;48.85;27.77;;;;;;;5.05;100.00;98995.38;1636249;86;21068;-79
2021/12/10 11:20:09;;;;;;;41.35;25.55;;;;;;;5.09;100.00;99005.94;1631691;86;21915;-78
2021/12/10 11:22:48;;;;;;;41.50;23.90;;;;;;;5.11;100.00;99021.42;1631972;85;21103;-80
2021/12/10 11:25:25;;;;;;;41.37;24.40;;;;;;;5.15;100.00;99017.56;1632961;86;21035;-78
2021/12/10 11:27:57;;;;;;;42.55;24.27;;;;;;;5.17;100.00;99003.92;1631786;86;21105;-79
2021/12/10 11:30:27;;;;;;;41.88;24.63;;;;;;;5.18;100.00;99002.83;1646112;86;20972;-79
2021/12/10 11:33:01;;;;;;;46.30;25.17;;;;;;;5.18;100.00;99002.83;1634783;86;21105;-77
2021/12/10 11:35:43;;;;;;;39.30;23.60;;;;;;;5.23;100.00;98982.31;1637670;86;20961;-78
2021/12/10 11:38:14;;;;;;;43.50;24.55;;;;;;;5.26;100.00;98980.36;1643771;86;20993;-78